Latest Weather Observations for Darwin Harbour

IDD60801

Issued at 6:01 am CST Thursday 16 August 2018 (issued every 10 minutes, with the page automatically refreshed every 10 minutes)

About weather observations | Map of weather stations | Latest weather observations for NT | Other Formats
Station Details ID: 014072 Name: DARWIN NTC AWS Lat: -12.47 Lon: 130.85 Height: 0.0 m
Data from the previous 72 hours. | See also: Recent months for locations in Northern Territory
Date/Time
CST
Temp
°C
App
Temp
°C
Dew
Point
°C
Rel
Hum
%
Delta-T
°C
Wind Press
QNH
hPa
Press
MSL
hPa
Rain since
9am
mm
Dir  Spd
km/h
Gust
km/h
Spd
kts
Gust
kts
16/06:00am - - - - - ESE 7 9 4 5 1012.5 1012.4 -
16/05:30am - - - - - SE 7 11 4 6 1012.2 1012.1 -
16/05:00am - - - - - ENE 7 9 4 5 1012.2 1012.1 -
16/04:30am - - - - - ENE 6 7 3 4 1012.1 1012.0 -
16/04:00am - - - - - NE 6 9 3 5 1012.1 1012.0 -
16/03:30am - - - - - SE 4 6 2 3 1012.3 1012.2 -
16/03:00am - - - - - SW 4 7 2 4 1012.5 1012.4 -
16/02:30am - - - - - SW 7 9 4 5 1012.8 1012.7 -
16/02:00am - - - - - S 6 7 3 4 1012.9 1012.8 -
16/01:30am - - - - - SSW 9 11 5 6 1013.0 1012.9 -
16/01:00am - - - - - SSE 6 7 3 4 1013.2 1013.1 -
16/12:30am - - - - - NE 4 7 2 4 1013.2 1013.1 -
16/12:00am - - - - - E 7 9 4 5 1013.3 1013.2 -
 
Date/Time
CST
Temp
°C
App
Temp
°C
Dew
Point
°C
Rel
Hum
%
Delta-T
°C
Wind Press
QNH
hPa
Press
MSL
hPa
Rain since
9am
mm
Dir  Spd
km/h
Gust
km/h
Spd
kts
Gust
kts
15/11:30pm - - - - - ENE 2 6 1 3 1013.3 1013.2 -
15/11:00pm - - - - - ESE 6 7 3 4 1013.2 1013.1 -
15/10:30pm - - - - - SSE 6 9 3 5 1013.2 1013.1 -
15/10:00pm - - - - - NE 4 9 2 5 1013.1 1013.0 -
15/09:30pm - - - - - NE 7 15 4 8 1013.0 1012.9 -
15/09:00pm - - - - - NE 9 15 5 8 1012.7 1012.6 -
15/08:30pm - - - - - NE 9 17 5 9 1012.4 1012.3 -
15/08:00pm - - - - - NE 11 19 6 10 1012.1 1012.0 -
15/07:30pm - - - - - NE 7 17 4 9 1011.7 1011.6 -
15/07:00pm - - - - - NE 11 24 6 13 1011.5 1011.4 -
15/06:30pm - - - - - NNE 11 19 6 10 1011.3 1011.2 -
15/06:00pm - - - - - N 13 20 7 11 1011.2 1011.1 -
15/05:30pm - - - - - N 11 24 6 13 1011.0 1010.9 -
15/05:00pm - - - - - NNW 13 22 7 12 1011.1 1011.0 -
15/04:30pm - - - - - NNW 13 28 7 15 1011.0 1010.9 -
15/04:00pm - - - - - NNW 17 28 9 15 1011.2 1011.1 -
15/03:30pm - - - - - WNW 19 30 10 16 1011.5 1011.4 -
15/03:00pm - - - - - WNW 20 26 11 14 1011.9 1011.8 -
15/02:30pm - - - - - WNW 19 26 10 14 1012.2 1012.1 -
15/02:00pm - - - - - WNW 17 22 9 12 1012.5 1012.4 -
15/01:30pm - - - - - WNW 15 20 8 11 1012.9 1012.8 -
15/01:00pm - - - - - SSW 6 9 3 5 1013.2 1013.1 -
15/12:30pm - - - - - SSW 7 9 4 5 1013.7 1013.6 -
15/12:00pm - - - - - ESE 9 15 5 8 1014.2 1014.1 -
15/11:30am - - - - - E 15 20 8 11 1014.7 1014.6 -
15/11:00am - - - - - ENE 15 20 8 11 1015.2 1015.1 -
15/10:30am - - - - - E 19 24 10 13 1015.4 1015.3 -
15/10:00am - - - - - E 19 24 10 13 1015.8 1015.7 -
15/09:30am - - - - - E 20 28 11 15 1015.7 1015.6 -
15/09:00am - - - - - E 19 26 10 14 1015.4 1015.3 -
15/08:30am - - - - - ENE 15 22 8 12 1015.3 1015.2 -
15/08:00am - - - - - ENE 7 13 4 7 1015.1 1015.0 -
15/07:30am - - - - - ENE 9 15 5 8 1014.8 1014.7 -
15/07:00am - - - - - ENE 6 11 3 6 1014.4 1014.3 -
15/06:30am - - - - - E 11 15 6 8 1014.3 1014.2 -
15/06:00am - - - - - E 9 13 5 7 1014.2 1014.1 -
15/05:30am - - - - - ESE 9 13 5 7 1014.1 1014.0 -
15/05:00am - - - - - SE 7 9 4 5 1014.1 1014.0 -
15/04:30am - - - - - SW 9 11 5 6 1014.1 1014.0 -
15/04:00am - - - - - SSW 7 11 4 6 1014.4 1014.3 -
15/03:30am - - - - - S 7 9 4 5 1014.3 1014.2 -
15/03:00am - - - - - WSW 7 9 4 5 1014.2 1014.1 -
15/02:30am - - - - - WSW 6 7 3 4 1014.2 1014.1 -
15/02:00am - - - - - WSW 7 11 4 6 1014.3 1014.2 -
15/01:30am - - - - - SW 11 17 6 9 1014.7 1014.6 -
15/01:00am - - - - - WSW 9 13 5 7 1014.8 1014.7 -
15/12:30am - - - - - SW 15 19 8 10 1014.9 1014.8 -
15/12:00am - - - - - WSW 15 20 8 11 1014.8 1014.7 -
 
Date/Time
CST
Temp
°C
App
Temp
°C
Dew
Point
°C
Rel
Hum
%
Delta-T
°C
Wind Press
QNH
hPa
Press
MSL
hPa
Rain since
9am
mm
Dir  Spd
km/h
Gust
km/h
Spd
kts
Gust
kts
14/11:30pm - - - - - WSW 13 19 7 10 1015.0 1014.9 -
14/11:00pm - - - - - WSW 17 20 9 11 1014.9 1014.8 -
14/10:30pm - - - - - WSW 13 19 7 10 1014.8 1014.7 -
14/10:00pm - - - - - W 11 15 6 8 1014.6 1014.5 -
14/09:30pm - - - - - WSW 13 17 7 9 1014.6 1014.5 -
14/09:00pm - - - - - W 15 19 8 10 1014.5 1014.4 -
14/08:30pm - - - - - W 15 19 8 10 1014.3 1014.2 -
14/08:00pm - - - - - WNW 15 20 8 11 1013.9 1013.8 -
14/07:30pm - - - - - WNW 11 20 6 11 1013.6 1013.5 -
14/07:00pm - - - - - NNW 13 17 7 9 1012.9 1012.8 -
14/06:30pm - - - - - NW 9 17 5 9 1012.5 1012.4 -
14/06:00pm - - - - - WNW 6 11 3 6 1012.3 1012.2 -
14/05:30pm - - - - - WNW 6 11 3 6 1012.0 1011.9 -
14/05:00pm - - - - - WNW 11 15 6 8 1011.8 1011.7 -
14/04:30pm - - - - - W 7 9 4 5 1011.8 1011.7 -
14/04:00pm - - - - - WSW 7 9 4 5 1011.9 1011.8 -
14/03:30pm - - - - - SSW 6 7 3 4 1012.2 1012.1 -
14/03:00pm - - - - - ESE 7 9 4 5 1012.6 1012.5 -
14/02:30pm - - - - - E 11 20 6 11 1013.0 1012.9 -
14/02:00pm - - - - - E 19 28 10 15 1013.5 1013.4 -
14/01:30pm - - - - - E 19 24 10 13 1014.0 1013.9 -
14/01:00pm - - - - - E 22 30 12 16 1014.4 1014.3 -
14/12:30pm - - - - - ESE 24 33 13 18 1015.0 1014.9 -
14/12:00pm - - - - - ESE 26 32 14 17 1015.7 1015.6 -
14/11:30am - - - - - E 26 33 14 18 1016.2 1016.1 -
14/11:00am - - - - - E 30 39 16 21 1016.5 1016.4 -
14/10:30am - - - - - ESE 33 41 18 22 1016.9 1016.8 -
14/10:00am - - - - - E 33 41 18 22 1017.2 1017.1 -
14/09:30am - - - - - ESE 28 35 15 19 1017.4 1017.4 -
14/09:00am - - - - - ESE 24 30 13 16 1017.6 1017.6 -
14/08:30am - - - - - ESE 30 33 16 18 1017.4 1017.4 -
14/08:00am - - - - - ESE 33 39 18 21 1017.1 1017.0 -
14/07:30am - - - - - ESE 32 39 17 21 1016.9 1016.8 -
14/07:00am - - - - - ESE 30 35 16 19 1016.6 1016.5 -
14/06:30am - - - - - E 28 37 15 20 1016.1 1016.0 -
14/06:00am - - - - - ESE 30 41 16 22 1015.8 1015.7 -
14/05:30am - - - - - E 26 32 14 17 1015.8 1015.7 -
14/05:00am - - - - - E 28 33 15 18 1015.6 1015.5 -
14/04:30am - - - - - ESE 28 33 15 18 1015.5 1015.4 -
14/04:00am - - - - - ESE 28 33 15 18 1015.5 1015.4 -
14/03:30am - - - - - E 20 28 11 15 1015.5 1015.4 -
14/03:00am - - - - - ESE 24 32 13 17 1015.7 1015.6 -
14/02:30am - - - - - ESE 24 30 13 16 1015.6 1015.5 -
14/02:00am - - - - - SE 24 28 13 15 1015.7 1015.6 -
14/01:30am - - - - - ESE 22 26 12 14 1016.0 1015.9 -
14/01:00am - - - - - SE 22 28 12 15 1016.3 1016.2 -
14/12:30am - - - - - ESE 22 28 12 15 1016.3 1016.2 -
14/12:00am - - - - - ESE 17 22 9 12 1016.4 1016.3 -
 
Date/Time
CST
Temp
°C
App
Temp
°C
Dew
Point
°C
Rel
Hum
%
Delta-T
°C
Wind Press
QNH
hPa
Press
MSL
hPa
Rain since
9am
mm
Dir  Spd
km/h
Gust
km/h
Spd
kts
Gust
kts
13/11:30pm - - - - - SE 20 24 11 13 1016.3 1016.2 -
13/11:00pm - - - - - SE 20 24 11 13 1016.2 1016.1 -
13/10:30pm - - - - - SE 19 22 10 12 1016.1 1016.0 -
13/10:00pm - - - - - ESE 13 17 7 9 1016.1 1016.0 -
13/09:30pm - - - - - ESE 13 19 7 10 1016.0 1015.9 -
13/09:00pm - - - - - SE 13 17 7 9 1015.7 1015.6 -
13/08:30pm - - - - - ENE 2 7 1 4 1015.4 1015.3 -
13/08:00pm - - - - - W 2 4 1 2 1015.1 1015.0 -
13/07:30pm - - - - - N 4 7 2 4 1014.6 1014.5 -
13/07:00pm - - - - - NE 4 11 2 6 1014.2 1014.1 -
13/06:30pm - - - - - ESE 15 19 8 10 1013.7 1013.6 -
13/06:00pm - - - - - E 19 22 10 12 1013.5 1013.4 -
13/05:30pm - - - - - E 15 20 8 11 1013.2 1013.1 -
13/05:00pm - - - - - E 17 20 9 11 1013.1 1013.0 -
13/04:30pm - - - - - ESE 17 20 9 11 1013.2 1013.1 -
13/04:00pm - - - - - SE 13 17 7 9 1013.3 1013.2 -
13/03:30pm - - - - - SE 15 20 8 11 1013.5 1013.4 -
13/03:00pm - - - - - ESE 13 17 7 9 1013.7 1013.6 -
13/02:30pm - - - - - SE 17 20 9 11 1014.2 1014.1 -
13/02:00pm - - - - - SE 19 24 10 13 1014.6 1014.5 -
13/01:30pm - - - - - ESE 22 28 12 15 1015.1 1015.0 -
13/01:00pm - - - - - ESE 24 32 13 17 1015.6 1015.5 -
13/12:30pm - - - - - ESE 24 32 13 17 1016.1 1016.0 -
13/12:00pm - - - - - ESE 28 33 15 18 1016.5 1016.4 -
13/11:30am - - - - - ESE 33 39 18 21 1016.7 1016.6 -
13/11:00am - - - - - ESE 35 44 19 24 1017.1 1017.0 -
13/10:30am - - - - - ESE 37 44 20 24 1017.1 1017.0 -
13/10:00am - - - - - ESE 39 46 21 25 1017.2 1017.1 -
13/09:30am - - - - - ESE 37 46 20 25 1017.3 1017.2 -
13/09:00am - - - - - SE 33 43 18 23 1017.2 1017.1 -
13/08:30am - - - - - SE 33 41 18 22 1016.9 1016.8 -
13/08:00am - - - - - SE 32 43 17 23 1016.5 1016.4 -
13/07:30am - - - - - SE 28 35 15 19 1016.4 1016.3 -
13/07:00am - - - - - SSE 24 35 13 19 1015.9 1015.8 -
13/06:30am - - - - - SE 28 35 15 19 1015.3 1015.2 -

Other Formats:

Comma delimited format used in spreadsheet applications
http://www.bom.gov.au/fwo/IDD60801/IDD60801.95122.axf

JavaScript Object Notation format (JSON) in row-major order
http://www.bom.gov.au/fwo/IDD60801/IDD60801.95122.json